sensor_id;sensor_type;location;lat;lon;timestamp;temperature;humidity
24232;DHT22;12364;47.810;8.810;2023-05-16T03:47:27;13.60;99.90
24232;DHT22;12364;47.810;8.810;2023-05-16T03:49:57;13.70;99.90
24232;DHT22;12364;47.810;8.810;2023-05-16T03:52:23;13.70;99.90
24232;DHT22;12364;47.810;8.810;2023-05-16T03:54:50;13.70;99.90
24232;DHT22;12364;47.810;8.810;2023-05-16T03:57:17;13.80;99.90
24232;DHT22;12364;47.810;8.810;2023-05-16T03:59:44;13.70;99.90
24232;DHT22;12364;47.810;8.810;2023-05-16T04:02:12;13.80;99.90
24232;DHT22;12364;47.810;8.810;2023-05-16T04:04:39;13.80;99.90
24232;DHT22;12364;47.810;8.810;2023-05-16T04:07:06;13.80;99.90
24232;DHT22;12364;47.810;8.810;2023-05-16T04:09:33;13.90;99.90
24232;DHT22;12364;47.810;8.810;2023-05-16T04:12:00;14.00;99.90
24232;DHT22;12364;47.810;8.810;2023-05-16T04:14:28;13.80;99.90
24232;DHT22;12364;47.810;8.810;2023-05-16T04:16:55;13.90;99.90
24232;DHT22;12364;47.810;8.810;2023-05-16T04:19:22;13.80;99.90
24232;DHT22;12364;47.810;8.810;2023-05-16T04:21:49;13.80;99.90
24232;DHT22;12364;47.810;8.810;2023-05-16T04:24:17;13.90;99.90
24232;DHT22;12364;47.810;8.810;2023-05-16T04:26:44;13.90;99.90
24232;DHT22;12364;47.810;8.810;2023-05-16T04:29:12;14.00;99.90
24232;DHT22;12364;47.810;8.810;2023-05-16T04:31:40;14.00;99.90
24232;DHT22;12364;47.810;8.810;2023-05-16T04:34:07;14.00;99.90
24232;DHT22;12364;47.810;8.810;2023-05-16T04:36:34;14.00;99.90
24232;DHT22;12364;47.810;8.810;2023-05-16T04:39:01;14.10;99.90
24232;DHT22;12364;47.810;8.810;2023-05-16T04:41:28;14.10;99.90
24232;DHT22;12364;47.810;8.810;2023-05-16T04:43:55;14.10;99.90
24232;DHT22;12364;47.810;8.810;2023-05-16T04:46:22;14.10;99.90
24232;DHT22;12364;47.810;8.810;2023-05-16T04:48:49;14.30;99.90
24232;DHT22;12364;47.810;8.810;2023-05-16T04:51:17;14.20;99.90
24232;DHT22;12364;47.810;8.810;2023-05-16T04:53:44;14.30;99.90
24232;DHT22;12364;47.810;8.810;2023-05-16T04:56:11;14.20;99.90
24232;DHT22;12364;47.810;8.810;2023-05-16T04:58:38;14.50;99.90
24232;DHT22;12364;47.810;8.810;2023-05-16T05:01:08;14.40;99.90
24232;DHT22;12364;47.810;8.810;2023-05-16T05:03:35;14.40;99.90
24232;DHT22;12364;47.810;8.810;2023-05-16T05:06:03;14.40;99.90
24232;DHT22;12364;47.810;8.810;2023-05-16T05:08:30;14.40;99.90
24232;DHT22;12364;47.810;8.810;2023-05-16T05:10:57;14.40;99.90
24232;DHT22;12364;47.810;8.810;2023-05-16T05:13:24;14.50;99.90
24232;DHT22;12364;47.810;8.810;2023-05-16T05:15:51;14.50;99.90
24232;DHT22;12364;47.810;8.810;2023-05-16T05:18:18;14.50;99.90
24232;DHT22;12364;47.810;8.810;2023-05-16T05:20:45;14.50;99.90
24232;DHT22;12364;47.810;8.810;2023-05-16T05:23:12;14.50;99.90
24232;DHT22;12364;47.810;8.810;2023-05-16T05:25:39;14.60;99.90
24232;DHT22;12364;47.810;8.810;2023-05-16T05:28:06;14.60;99.90
24232;DHT22;12364;47.810;8.810;2023-05-16T05:30:33;14.60;99.90
24232;DHT22;12364;47.810;8.810;2023-05-16T05:33:00;14.70;99.90
24232;DHT22;12364;47.810;8.810;2023-05-16T05:35:27;14.70;99.90
24232;DHT22;12364;47.810;8.810;2023-05-16T05:37:54;14.70;99.90
24232;DHT22;12364;47.810;8.810;2023-05-16T05:40:21;14.70;99.90
24232;DHT22;12364;47.810;8.810;2023-05-16T05:42:48;14.80;99.90
24232;DHT22;12364;47.810;8.810;2023-05-16T05:45:16;14.80;99.90
24232;DHT22;12364;47.810;8.810;2023-05-16T05:47:43;14.80;99.90
24232;DHT22;12364;47.810;8.810;2023-05-16T05:50:10;14.90;99.90
24232;DHT22;12364;47.810;8.810;2023-05-16T05:52:37;14.90;99.90
24232;DHT22;12364;47.810;8.810;2023-05-16T05:55:04;14.90;99.90
24232;DHT22;12364;47.810;8.810;2023-05-16T05:57:31;14.90;99.90
24232;DHT22;12364;47.810;8.810;2023-05-16T05:59:58;15.10;99.90
24232;DHT22;12364;47.810;8.810;2023-05-16T06:02:25;15.00;99.90
24232;DHT22;12364;47.810;8.810;2023-05-16T06:04:53;15.00;99.90
24232;DHT22;12364;47.810;8.810;2023-05-16T06:07:20;15.10;99.90
24232;DHT22;12364;47.810;8.810;2023-05-16T06:09:47;15.20;99.90
24232;DHT22;12364;47.810;8.810;2023-05-16T06:12:14;15.20;99.90
24232;DHT22;12364;47.810;8.810;2023-05-16T06:14:41;15.10;99.90
24232;DHT22;12364;47.810;8.810;2023-05-16T06:17:08;15.00;99.90
24232;DHT22;12364;47.810;8.810;2023-05-16T06:19:35;15.00;99.90
24232;DHT22;12364;47.810;8.810;2023-05-16T06:22:02;15.00;99.90
24232;DHT22;12364;47.810;8.810;2023-05-16T06:24:29;15.00;99.90
24232;DHT22;12364;47.810;8.810;2023-05-16T06:26:56;15.10;99.90
24232;DHT22;12364;47.810;8.810;2023-05-16T06:29:23;15.00;99.90
24232;DHT22;12364;47.810;8.810;2023-05-16T06:31:50;15.00;99.90
24232;DHT22;12364;47.810;8.810;2023-05-16T06:34:17;15.00;99.90
24232;DHT22;12364;47.810;8.810;2023-05-16T06:36:44;15.00;99.90
24232;DHT22;12364;47.810;8.810;2023-05-16T06:39:11;14.90;99.90
24232;DHT22;12364;47.810;8.810;2023-05-16T06:41:38;15.00;99.90
24232;DHT22;12364;47.810;8.810;2023-05-16T06:44:05;15.00;99.90
24232;DHT22;12364;47.810;8.810;2023-05-16T06:46:32;14.90;99.90
24232;DHT22;12364;47.810;8.810;2023-05-16T06:49:00;14.90;99.90
24232;DHT22;12364;47.810;8.810;2023-05-16T06:51:26;15.00;99.90
24232;DHT22;12364;47.810;8.810;2023-05-16T06:53:53;14.90;99.90
24232;DHT22;12364;47.810;8.810;2023-05-16T06:56:21;14.80;99.90
24232;DHT22;12364;47.810;8.810;2023-05-16T06:58:48;14.90;99.90
24232;DHT22;12364;47.810;8.810;2023-05-16T07:01:15;14.90;99.90
24232;DHT22;12364;47.810;8.810;2023-05-16T07:03:42;14.90;99.90
24232;DHT22;12364;47.810;8.810;2023-05-16T07:06:09;15.00;99.90
24232;DHT22;12364;47.810;8.810;2023-05-16T07:08:37;15.00;99.90
24232;DHT22;12364;47.810;8.810;2023-05-16T07:11:04;15.10;99.90
24232;DHT22;12364;47.810;8.810;2023-05-16T07:13:31;15.10;99.90
24232;DHT22;12364;47.810;8.810;2023-05-16T07:16:01;15.10;99.90
24232;DHT22;12364;47.810;8.810;2023-05-16T07:18:28;15.20;99.90
24232;DHT22;12364;47.810;8.810;2023-05-16T07:20:55;15.20;99.90
24232;DHT22;12364;47.810;8.810;2023-05-16T07:23:23;15.30;99.90
24232;DHT22;12364;47.810;8.810;2023-05-16T07:25:50;15.40;99.90
24232;DHT22;12364;47.810;8.810;2023-05-16T07:28:17;15.40;99.90
24232;DHT22;12364;47.810;8.810;2023-05-16T07:30:44;15.50;99.90
24232;DHT22;12364;47.810;8.810;2023-05-16T07:33:12;15.50;99.90
24232;DHT22;12364;47.810;8.810;2023-05-16T07:35:39;15.50;99.90
24232;DHT22;12364;47.810;8.810;2023-05-16T07:38:06;15.50;99.90
24232;DHT22;12364;47.810;8.810;2023-05-16T07:40:33;15.50;99.90
24232;DHT22;12364;47.810;8.810;2023-05-16T07:43:00;15.50;99.60
24232;DHT22;12364;47.810;8.810;2023-05-16T07:45:28;15.50;99.70
24232;DHT22;12364;47.810;8.810;2023-05-16T07:47:56;15.50;99.00
24232;DHT22;12364;47.810;8.810;2023-05-16T07:50:23;15.50;99.70
24232;DHT22;12364;47.810;8.810;2023-05-16T07:52:50;15.50;99.90
24232;DHT22;12364;47.810;8.810;2023-05-16T07:55:18;15.70;99.90
24232;DHT22;12364;47.810;8.810;2023-05-16T07:57:45;15.70;99.30
24232;DHT22;12364;47.810;8.810;2023-05-16T08:00:12;15.60;98.80
24232;DHT22;12364;47.810;8.810;2023-05-16T08:02:39;15.60;99.10
24232;DHT22;12364;47.810;8.810;2023-05-16T08:05:07;15.70;99.30
24232;DHT22;12364;47.810;8.810;2023-05-16T08:07:34;15.70;99.30
24232;DHT22;12364;47.810;8.810;2023-05-16T08:10:01;15.70;99.10
24232;DHT22;12364;47.810;8.810;2023-05-16T08:12:29;15.70;99.00
24232;DHT22;12364;47.810;8.810;2023-05-16T08:14:56;15.70;98.50
24232;DHT22;12364;47.810;8.810;2023-05-16T08:17:23;15.70;98.90
24232;DHT22;12364;47.810;8.810;2023-05-16T08:19:50;15.80;98.70
24232;DHT22;12364;47.810;8.810;2023-05-16T08:22:17;15.70;99.10
24232;DHT22;12364;47.810;8.810;2023-05-16T08:24:44;15.80;99.10
24232;DHT22;12364;47.810;8.810;2023-05-16T08:27:11;15.80;98.90
24232;DHT22;12364;47.810;8.810;2023-05-16T08:29:39;15.80;99.10
24232;DHT22;12364;47.810;8.810;2023-05-16T08:32:07;15.80;98.90
24232;DHT22;12364;47.810;8.810;2023-05-16T08:34:34;15.60;98.60
24232;DHT22;12364;47.810;8.810;2023-05-16T08:37:01;15.60;99.10
24232;DHT22;12364;47.810;8.810;2023-05-16T08:39:28;15.60;99.30
24232;DHT22;12364;47.810;8.810;2023-05-16T08:41:56;15.70;98.90
24232;DHT22;12364;47.810;8.810;2023-05-16T08:44:26;15.70;98.70
24232;DHT22;12364;47.810;8.810;2023-05-16T08:46:53;15.70;98.80
24232;DHT22;12364;47.810;8.810;2023-05-16T08:49:20;15.70;98.70
24232;DHT22;12364;47.810;8.810;2023-05-16T08:51:50;15.80;98.70
24232;DHT22;12364;47.810;8.810;2023-05-16T08:54:17;15.80;98.50
24232;DHT22;12364;47.810;8.810;2023-05-16T08:56:44;15.80;98.30
24232;DHT22;12364;47.810;8.810;2023-05-16T08:59:11;15.80;98.60
24232;DHT22;12364;47.810;8.810;2023-05-16T09:01:38;15.80;98.60
24232;DHT22;12364;47.810;8.810;2023-05-16T09:04:08;15.90;98.80
24232;DHT22;12364;47.810;8.810;2023-05-16T09:06:35;15.90;98.60
24232;DHT22;12364;47.810;8.810;2023-05-16T09:09:02;15.90;98.90
24232;DHT22;12364;47.810;8.810;2023-05-16T09:11:33;16.00;98.70
24232;DHT22;12364;47.810;8.810;2023-05-16T09:14:03;16.00;98.10
24232;DHT22;12364;47.810;8.810;2023-05-16T09:16:31;16.00;98.20
24232;DHT22;12364;47.810;8.810;2023-05-16T09:18:59;15.90;97.70
24232;DHT22;12364;47.810;8.810;2023-05-16T09:21:30;15.90;98.00
24232;DHT22;12364;47.810;8.810;2023-05-16T09:26:34;15.90;98.10
24232;DHT22;12364;47.810;8.810;2023-05-16T09:29:01;15.80;98.20
24232;DHT22;12364;47.810;8.810;2023-05-16T09:31:28;15.90;98.00
24232;DHT22;12364;47.810;8.810;2023-05-16T09:34:06;15.90;98.10
24232;DHT22;12364;47.810;8.810;2023-05-16T09:36:33;16.00;98.40
24232;DHT22;12364;47.810;8.810;2023-05-16T09:39:00;16.00;98.30
24232;DHT22;12364;47.810;8.810;2023-05-16T09:41:27;16.10;97.50
24232;DHT22;12364;47.810;8.810;2023-05-16T09:43:55;15.90;98.00
24232;DHT22;12364;47.810;8.810;2023-05-16T09:46:24;15.90;98.00
24232;DHT22;12364;47.810;8.810;2023-05-16T09:48:51;15.80;97.80
24232;DHT22;12364;47.810;8.810;2023-05-16T09:51:20;15.90;98.10
24232;DHT22;12364;47.810;8.810;2023-05-16T09:53:47;15.70;97.80
24232;DHT22;12364;47.810;8.810;2023-05-16T09:56:15;15.70;98.10
24232;DHT22;12364;47.810;8.810;2023-05-16T09:58:43;15.70;98.70
24232;DHT22;12364;47.810;8.810;2023-05-16T10:01:10;15.70;98.70
24232;DHT22;12364;47.810;8.810;2023-05-16T10:03:38;15.80;98.00
24232;DHT22;12364;47.810;8.810;2023-05-16T10:06:06;15.60;98.60
24232;DHT22;12364;47.810;8.810;2023-05-16T10:08:34;15.50;98.40
24232;DHT22;12364;47.810;8.810;2023-05-16T10:11:05;15.40;98.50
24232;DHT22;12364;47.810;8.810;2023-05-16T10:13:33;15.30;98.60
24232;DHT22;12364;47.810;8.810;2023-05-16T10:16:05;15.30;98.70
24232;DHT22;12364;47.810;8.810;2023-05-16T10:18:33;15.30;98.80
24232;DHT22;12364;47.810;8.810;2023-05-16T10:21:03;15.30;98.80
24232;DHT22;12364;47.810;8.810;2023-05-16T10:23:31;15.20;98.80
24232;DHT22;12364;47.810;8.810;2023-05-16T10:26:00;15.20;99.10
24232;DHT22;12364;47.810;8.810;2023-05-16T10:28:28;15.30;98.90
24232;DHT22;12364;47.810;8.810;2023-05-16T10:30:55;15.30;99.10
24232;DHT22;12364;47.810;8.810;2023-05-16T10:33:23;15.30;99.00
24232;DHT22;12364;47.810;8.810;2023-05-16T10:35:50;15.20;98.20
24232;DHT22;12364;47.810;8.810;2023-05-16T10:38:18;15.10;98.80
24232;DHT22;12364;47.810;8.810;2023-05-16T10:40:46;15.20;99.40
24232;DHT22;12364;47.810;8.810;2023-05-16T10:43:22;15.30;99.20
24232;DHT22;12364;47.810;8.810;2023-05-16T10:45:55;15.40;99.20
24232;DHT22;12364;47.810;8.810;2023-05-16T10:48:35;15.30;98.40
24232;DHT22;12364;47.810;8.810;2023-05-16T10:51:02;15.20;98.70
24232;DHT22;12364;47.810;8.810;2023-05-16T10:53:31;15.20;98.60
24232;DHT22;12364;47.810;8.810;2023-05-16T11:11:40;15.10;98.40
24232;DHT22;12364;47.810;8.810;2023-05-16T11:14:09;15.20;98.60
24232;DHT22;12364;47.810;8.810;2023-05-16T11:16:46;15.40;98.30
24232;DHT22;12364;47.810;8.810;2023-05-16T11:19:13;15.20;98.60
24232;DHT22;12364;47.810;8.810;2023-05-16T11:24:34;15.10;98.10
24232;DHT22;12364;47.810;8.810;2023-05-16T11:27:02;15.00;98.10
24232;DHT22;12364;47.810;8.810;2023-05-16T11:29:30;15.00;98.10
24232;DHT22;12364;47.810;8.810;2023-05-16T11:31:58;15.00;98.20
24232;DHT22;12364;47.810;8.810;2023-05-16T11:34:26;15.10;97.70
24232;DHT22;12364;47.810;8.810;2023-05-16T11:36:53;15.20;97.90
24232;DHT22;12364;47.810;8.810;2023-05-16T11:39:21;15.30;97.20
24232;DHT22;12364;47.810;8.810;2023-05-16T11:41:54;15.30;97.30
24232;DHT22;12364;47.810;8.810;2023-05-16T11:44:22;15.40;97.20
24232;DHT22;12364;47.810;8.810;2023-05-16T11:46:49;15.40;96.90
24232;DHT22;12364;47.810;8.810;2023-05-16T11:49:16;15.40;97.20
24232;DHT22;12364;47.810;8.810;2023-05-16T11:51:43;15.50;97.70
24232;DHT22;12364;47.810;8.810;2023-05-16T11:54:10;15.50;97.30
24232;DHT22;12364;47.810;8.810;2023-05-16T11:56:38;15.60;97.10
24232;DHT22;12364;47.810;8.810;2023-05-16T11:59:06;15.50;97.20
24232;DHT22;12364;47.810;8.810;2023-05-16T12:01:34;15.40;96.70
24232;DHT22;12364;47.810;8.810;2023-05-16T12:04:06;15.40;97.10
24232;DHT22;12364;47.810;8.810;2023-05-16T12:06:33;15.40;97.00
24232;DHT22;12364;47.810;8.810;2023-05-16T12:09:00;15.50;97.30
24232;DHT22;12364;47.810;8.810;2023-05-16T12:11:36;15.80;97.20
24232;DHT22;12364;47.810;8.810;2023-05-16T12:14:04;15.60;96.90
24232;DHT22;12364;47.810;8.810;2023-05-16T12:16:31;15.50;96.60
24232;DHT22;12364;47.810;8.810;2023-05-16T12:18:59;15.40;97.20
24232;DHT22;12364;47.810;8.810;2023-05-16T12:21:27;15.40;96.50
24232;DHT22;12364;47.810;8.810;2023-05-16T12:23:55;15.50;96.70
24232;DHT22;12364;47.810;8.810;2023-05-16T12:26:28;15.60;97.00
24232;DHT22;12364;47.810;8.810;2023-05-16T12:28:57;15.60;96.70
24232;DHT22;12364;47.810;8.810;2023-05-16T12:31:28;15.70;96.40
24232;DHT22;12364;47.810;8.810;2023-05-16T12:33:58;15.70;95.80
24232;DHT22;12364;47.810;8.810;2023-05-16T12:36:29;15.60;96.10
24232;DHT22;12364;47.810;8.810;2023-05-16T12:39:00;15.60;96.20
24232;DHT22;12364;47.810;8.810;2023-05-16T12:41:29;15.60;96.10
24232;DHT22;12364;47.810;8.810;2023-05-16T12:44:09;15.60;95.80
24232;DHT22;12364;47.810;8.810;2023-05-16T12:46:48;15.50;95.80
24232;DHT22;12364;47.810;8.810;2023-05-16T12:49:22;15.40;95.70
24232;DHT22;12364;47.810;8.810;2023-05-16T12:51:55;15.30;96.00
24232;DHT22;12364;47.810;8.810;2023-05-16T12:54:24;15.20;96.70
24232;DHT22;12364;47.810;8.810;2023-05-16T12:56:51;15.10;96.30
24232;DHT22;12364;47.810;8.810;2023-05-16T12:59:18;14.90;96.40
24232;DHT22;12364;47.810;8.810;2023-05-16T13:01:46;14.90;96.90
24232;DHT22;12364;47.810;8.810;2023-05-16T13:04:13;14.90;97.10
24232;DHT22;12364;47.810;8.810;2023-05-16T13:06:47;15.10;96.80
24232;DHT22;12364;47.810;8.810;2023-05-16T13:09:25;14.90;97.00
24232;DHT22;12364;47.810;8.810;2023-05-16T13:11:58;14.90;97.20
24232;DHT22;12364;47.810;8.810;2023-05-16T13:14:25;14.80;97.00
24232;DHT22;12364;47.810;8.810;2023-05-16T13:16:52;14.80;97.50
24232;DHT22;12364;47.810;8.810;2023-05-16T13:19:19;14.90;97.70
24232;DHT22;12364;47.810;8.810;2023-05-16T13:21:48;15.00;98.00
24232;DHT22;12364;47.810;8.810;2023-05-16T13:24:15;15.10;97.70
24232;DHT22;12364;47.810;8.810;2023-05-16T13:26:42;15.10;97.60
24232;DHT22;12364;47.810;8.810;2023-05-16T13:29:09;15.10;97.20
24232;DHT22;12364;47.810;8.810;2023-05-16T13:31:37;15.00;97.30
24232;DHT22;12364;47.810;8.810;2023-05-16T13:34:04;15.10;97.50
24232;DHT22;12364;47.810;8.810;2023-05-16T13:36:32;14.90;97.40
24232;DHT22;12364;47.810;8.810;2023-05-16T13:39:19;14.80;97.60
24232;DHT22;12364;47.810;8.810;2023-05-16T13:41:46;14.80;97.60
24232;DHT22;12364;47.810;8.810;2023-05-16T13:44:15;14.70;97.70
24232;DHT22;12364;47.810;8.810;2023-05-16T13:46:42;14.70;97.70
24232;DHT22;12364;47.810;8.810;2023-05-16T13:49:09;14.60;97.60
24232;DHT22;12364;47.810;8.810;2023-05-16T13:51:36;14.70;97.80
24232;DHT22;12364;47.810;8.810;2023-05-16T13:54:03;14.70;97.70
24232;DHT22;12364;47.810;8.810;2023-05-16T13:56:30;14.80;97.80
24232;DHT22;12364;47.810;8.810;2023-05-16T13:58:57;14.80;97.90
24232;DHT22;12364;47.810;8.810;2023-05-16T14:01:31;14.80;98.00
24232;DHT22;12364;47.810;8.810;2023-05-16T14:03:58;15.00;98.00
24232;DHT22;12364;47.810;8.810;2023-05-16T14:06:26;14.80;98.20
24232;DHT22;12364;47.810;8.810;2023-05-16T14:08:53;14.70;97.90
24232;DHT22;12364;47.810;8.810;2023-05-16T14:11:20;14.80;98.20
24232;DHT22;12364;47.810;8.810;2023-05-16T14:13:54;14.80;98.20
24232;DHT22;12364;47.810;8.810;2023-05-16T14:16:22;14.80;97.60
24232;DHT22;12364;47.810;8.810;2023-05-16T14:18:49;14.70;97.60
24232;DHT22;12364;47.810;8.810;2023-05-16T14:21:16;14.60;97.80
24232;DHT22;12364;47.810;8.810;2023-05-16T14:23:43;14.60;97.60
24232;DHT22;12364;47.810;8.810;2023-05-16T14:26:10;14.70;98.00
24232;DHT22;12364;47.810;8.810;2023-05-16T14:28:37;14.80;98.10
24232;DHT22;12364;47.810;8.810;2023-05-16T14:31:04;14.80;98.00
24232;DHT22;12364;47.810;8.810;2023-05-16T14:33:31;14.80;97.90
24232;DHT22;12364;47.810;8.810;2023-05-16T14:35:59;14.70;97.80
24232;DHT22;12364;47.810;8.810;2023-05-16T14:38:26;14.70;97.80
24232;DHT22;12364;47.810;8.810;2023-05-16T14:40:53;14.80;98.00
24232;DHT22;12364;47.810;8.810;2023-05-16T14:43:21;14.70;97.80
24232;DHT22;12364;47.810;8.810;2023-05-16T14:45:48;14.60;97.60
24232;DHT22;12364;47.810;8.810;2023-05-16T14:48:15;14.60;97.60
24232;DHT22;12364;47.810;8.810;2023-05-16T14:50:43;14.60;97.50
24232;DHT22;12364;47.810;8.810;2023-05-16T14:53:10;14.60;97.80
24232;DHT22;12364;47.810;8.810;2023-05-16T14:55:37;14.60;97.70
24232;DHT22;12364;47.810;8.810;2023-05-16T14:58:04;14.60;97.80
24232;DHT22;12364;47.810;8.810;2023-05-16T15:00:31;14.60;98.00
24232;DHT22;12364;47.810;8.810;2023-05-16T15:02:58;14.70;97.90
24232;DHT22;12364;47.810;8.810;2023-05-16T15:05:25;14.60;97.70
24232;DHT22;12364;47.810;8.810;2023-05-16T15:07:55;14.50;97.90
24232;DHT22;12364;47.810;8.810;2023-05-16T15:10:22;14.50;97.60
24232;DHT22;12364;47.810;8.810;2023-05-16T15:12:49;14.50;97.60
24232;DHT22;12364;47.810;8.810;2023-05-16T15:15:16;14.40;97.70
24232;DHT22;12364;47.810;8.810;2023-05-16T15:17:43;14.50;97.60
24232;DHT22;12364;47.810;8.810;2023-05-16T15:20:11;14.40;97.60
24232;DHT22;12364;47.810;8.810;2023-05-16T15:22:38;14.40;97.30
24232;DHT22;12364;47.810;8.810;2023-05-16T15:25:06;14.40;97.50
24232;DHT22;12364;47.810;8.810;2023-05-16T15:27:33;14.50;97.10
24232;DHT22;12364;47.810;8.810;2023-05-16T15:30:00;14.50;97.60
24232;DHT22;12364;47.810;8.810;2023-05-16T15:32:27;14.50;97.10
24232;DHT22;12364;47.810;8.810;2023-05-16T15:34:55;14.40;96.70
24232;DHT22;12364;47.810;8.810;2023-05-16T15:37:22;14.40;96.90
24232;DHT22;12364;47.810;8.810;2023-05-16T15:39:49;14.60;96.70
24232;DHT22;12364;47.810;8.810;2023-05-16T15:42:16;14.40;96.60
24232;DHT22;12364;47.810;8.810;2023-05-16T15:44:45;14.20;96.80
24232;DHT22;12364;47.810;8.810;2023-05-16T15:47:12;14.20;96.90
24232;DHT22;12364;47.810;8.810;2023-05-16T15:49:39;14.30;97.10
24232;DHT22;12364;47.810;8.810;2023-05-16T15:52:07;14.30;97.20
24232;DHT22;12364;47.810;8.810;2023-05-16T15:54:34;14.40;97.50
24232;DHT22;12364;47.810;8.810;2023-05-16T15:57:02;14.50;97.10
24232;DHT22;12364;47.810;8.810;2023-05-16T15:59:29;14.60;97.30
24232;DHT22;12364;47.810;8.810;2023-05-16T16:01:56;14.70;97.00
24232;DHT22;12364;47.810;8.810;2023-05-16T16:04:23;14.60;96.50
24232;DHT22;12364;47.810;8.810;2023-05-16T16:06:50;14.50;96.50
24232;DHT22;12364;47.810;8.810;2023-05-16T16:09:17;14.40;96.30
24232;DHT22;12364;47.810;8.810;2023-05-16T16:11:44;14.30;96.70
24232;DHT22;12364;47.810;8.810;2023-05-16T16:14:11;14.10;96.60
24232;DHT22;12364;47.810;8.810;2023-05-16T16:16:38;14.00;97.10
24232;DHT22;12364;47.810;8.810;2023-05-16T16:19:06;14.00;97.10
24232;DHT22;12364;47.810;8.810;2023-05-16T16:21:33;14.20;97.30
24232;DHT22;12364;47.810;8.810;2023-05-16T16:24:00;14.20;97.20
24232;DHT22;12364;47.810;8.810;2023-05-16T16:26:28;14.20;97.30
24232;DHT22;12364;47.810;8.810;2023-05-16T16:28:55;14.30;97.50
24232;DHT22;12364;47.810;8.810;2023-05-16T16:31:22;14.40;97.00
24232;DHT22;12364;47.810;8.810;2023-05-16T16:33:49;14.30;96.70
24232;DHT22;12364;47.810;8.810;2023-05-16T16:36:16;14.10;96.90
24232;DHT22;12364;47.810;8.810;2023-05-16T16:38:43;14.00;97.10
24232;DHT22;12364;47.810;8.810;2023-05-16T16:41:10;13.90;97.10
24232;DHT22;12364;47.810;8.810;2023-05-16T16:43:40;13.80;97.30
24232;DHT22;12364;47.810;8.810;2023-05-16T16:46:07;13.90;97.10
24232;DHT22;12364;47.810;8.810;2023-05-16T16:48:34;14.00;97.40
24232;DHT22;12364;47.810;8.810;2023-05-16T16:51:02;13.90;97.00
24232;DHT22;12364;47.810;8.810;2023-05-16T16:53:29;13.80;96.80
24232;DHT22;12364;47.810;8.810;2023-05-16T16:55:56;13.90;97.00
24232;DHT22;12364;47.810;8.810;2023-05-16T16:58:23;13.90;97.00
24232;DHT22;12364;47.810;8.810;2023-05-16T17:00:50;13.90;97.30
24232;DHT22;12364;47.810;8.810;2023-05-16T17:03:17;14.00;97.20
24232;DHT22;12364;47.810;8.810;2023-05-16T17:05:44;14.10;97.10
24232;DHT22;12364;47.810;8.810;2023-05-16T17:08:11;14.10;96.90
24232;DHT22;12364;47.810;8.810;2023-05-16T17:10:38;14.10;96.80
24232;DHT22;12364;47.810;8.810;2023-05-16T17:13:05;14.10;96.70
24232;DHT22;12364;47.810;8.810;2023-05-16T17:15:36;14.00;96.80
24232;DHT22;12364;47.810;8.810;2023-05-16T17:18:04;14.00;96.80
24232;DHT22;12364;47.810;8.810;2023-05-16T17:20:34;13.70;96.90
24232;DHT22;12364;47.810;8.810;2023-05-16T17:23:02;13.60;97.00
24232;DHT22;12364;47.810;8.810;2023-05-16T17:25:29;13.70;97.20
24232;DHT22;12364;47.810;8.810;2023-05-16T17:27:56;13.70;97.20
24232;DHT22;12364;47.810;8.810;2023-05-16T17:30:23;13.70;96.80
24232;DHT22;12364;47.810;8.810;2023-05-16T17:32:50;13.50;97.00
24232;DHT22;12364;47.810;8.810;2023-05-16T17:35:17;13.50;97.00
24232;DHT22;12364;47.810;8.810;2023-05-16T17:37:46;13.40;97.30
24232;DHT22;12364;47.810;8.810;2023-05-16T17:40:13;13.40;97.40
24232;DHT22;12364;47.810;8.810;2023-05-16T17:42:43;13.40;97.20
24232;DHT22;12364;47.810;8.810;2023-05-16T17:45:11;13.50;97.40
24232;DHT22;12364;47.810;8.810;2023-05-16T17:47:38;13.50;97.20
24232;DHT22;12364;47.810;8.810;2023-05-16T17:50:06;13.40;97.20
24232;DHT22;12364;47.810;8.810;2023-05-16T17:52:36;13.50;97.10
24232;DHT22;12364;47.810;8.810;2023-05-16T17:55:05;13.40;97.10
24232;DHT22;12364;47.810;8.810;2023-05-16T17:57:32;13.50;97.20
24232;DHT22;12364;47.810;8.810;2023-05-16T17:59:59;13.50;97.10
24232;DHT22;12364;47.810;8.810;2023-05-16T18:02:27;13.60;97.00
24232;DHT22;12364;47.810;8.810;2023-05-16T18:04:54;13.60;96.70
24232;DHT22;12364;47.810;8.810;2023-05-16T18:07:21;13.40;96.30
24232;DHT22;12364;47.810;8.810;2023-05-16T18:09:49;13.30;96.60
24232;DHT22;12364;47.810;8.810;2023-05-16T18:12:16;13.40;96.80
24232;DHT22;12364;47.810;8.810;2023-05-16T18:14:43;13.30;96.50
24232;DHT22;12364;47.810;8.810;2023-05-16T18:17:11;13.40;96.70
24232;DHT22;12364;47.810;8.810;2023-05-16T18:19:39;13.40;96.60
24232;DHT22;12364;47.810;8.810;2023-05-16T18:22:06;13.30;96.30
24232;DHT22;12364;47.810;8.810;2023-05-16T18:24:34;13.30;96.10
24232;DHT22;12364;47.810;8.810;2023-05-16T18:27:01;13.40;96.20
24232;DHT22;12364;47.810;8.810;2023-05-16T18:29:29;13.50;96.20
24232;DHT22;12364;47.810;8.810;2023-05-16T18:31:56;13.30;96.00
24232;DHT22;12364;47.810;8.810;2023-05-16T18:34:23;13.50;96.10
24232;DHT22;12364;47.810;8.810;2023-05-16T18:36:50;13.50;96.00
24232;DHT22;12364;47.810;8.810;2023-05-16T18:39:17;13.50;95.60
24232;DHT22;12364;47.810;8.810;2023-05-16T18:41:46;13.40;95.70
24232;DHT22;12364;47.810;8.810;2023-05-16T18:44:14;13.30;95.40
24232;DHT22;12364;47.810;8.810;2023-05-16T18:46:44;13.20;95.50
24232;DHT22;12364;47.810;8.810;2023-05-16T18:49:12;13.20;95.60
24232;DHT22;12364;47.810;8.810;2023-05-16T18:51:39;13.30;95.40
24232;DHT22;12364;47.810;8.810;2023-05-16T18:54:06;13.10;95.40
24232;DHT22;12364;47.810;8.810;2023-05-16T18:56:33;13.10;95.50
24232;DHT22;12364;47.810;8.810;2023-05-16T18:59:00;13.10;95.30
24232;DHT22;12364;47.810;8.810;2023-05-16T19:01:27;13.20;95.40
24232;DHT22;12364;47.810;8.810;2023-05-16T19:03:54;13.30;95.20
24232;DHT22;12364;47.810;8.810;2023-05-16T19:06:22;13.20;94.90
24232;DHT22;12364;47.810;8.810;2023-05-16T19:08:49;13.30;95.00
24232;DHT22;12364;47.810;8.810;2023-05-16T19:11:16;13.30;94.90
24232;DHT22;12364;47.810;8.810;2023-05-16T19:13:44;13.40;94.90
24232;DHT22;12364;47.810;8.810;2023-05-16T19:16:11;13.40;94.70
24232;DHT22;12364;47.810;8.810;2023-05-16T19:18:38;13.30;94.70
24232;DHT22;12364;47.810;8.810;2023-05-16T19:21:05;13.40;94.60
24232;DHT22;12364;47.810;8.810;2023-05-16T19:23:38;13.50;94.60
24232;DHT22;12364;47.810;8.810;2023-05-16T19:26:06;13.50;94.40
24232;DHT22;12364;47.810;8.810;2023-05-16T19:28:33;13.50;94.40
24232;DHT22;12364;47.810;8.810;2023-05-16T19:31:00;13.60;94.50
24232;DHT22;12364;47.810;8.810;2023-05-16T19:33:27;13.60;94.10
24232;DHT22;12364;47.810;8.810;2023-05-16T19:35:54;13.60;94.10
24232;DHT22;12364;47.810;8.810;2023-05-16T19:38:23;13.70;94.50
24232;DHT22;12364;47.810;8.810;2023-05-16T19:40:52;13.70;94.00